sensor_id;sensor_type;location;lat;lon;timestamp;temperature;humidity
30174;DHT22;16985;50.814;8.530;2023-05-10T00:00:25;14.50;99.90
30174;DHT22;16985;50.814;8.530;2023-05-10T00:02:51;14.50;99.90
30174;DHT22;16985;50.814;8.530;2023-05-10T00:05:17;14.40;99.90
30174;DHT22;16985;50.814;8.530;2023-05-10T00:07:42;14.30;99.90
30174;DHT22;16985;50.814;8.530;2023-05-10T00:10:10;14.30;99.90
30174;DHT22;16985;50.814;8.530;2023-05-10T00:12:44;14.20;99.90
30174;DHT22;16985;50.814;8.530;2023-05-10T00:15:10;14.20;99.90
30174;DHT22;16985;50.814;8.530;2023-05-10T00:17:37;14.20;99.90
30174;DHT22;16985;50.814;8.530;2023-05-10T00:20:03;15.30;99.90
30174;DHT22;16985;50.814;8.530;2023-05-10T00:22:30;14.10;99.90
30174;DHT22;16985;50.814;8.530;2023-05-10T00:24:57;14.10;99.90
30174;DHT22;16985;50.814;8.530;2023-05-10T00:27:23;14.00;99.90
30174;DHT22;16985;50.814;8.530;2023-05-10T00:29:49;14.00;99.90
30174;DHT22;16985;50.814;8.530;2023-05-10T00:32:15;16.30;99.90
30174;DHT22;16985;50.814;8.530;2023-05-10T00:34:42;13.90;99.90
30174;DHT22;16985;50.814;8.530;2023-05-10T00:37:08;13.80;99.90
30174;DHT22;16985;50.814;8.530;2023-05-10T00:39:34;13.90;99.90
30174;DHT22;16985;50.814;8.530;2023-05-10T00:41:59;13.80;99.90
30174;DHT22;16985;50.814;8.530;2023-05-10T00:44:26;13.80;99.90
30174;DHT22;16985;50.814;8.530;2023-05-10T00:47:00;13.80;99.90
30174;DHT22;16985;50.814;8.530;2023-05-10T00:49:26;14.40;99.90
30174;DHT22;16985;50.814;8.530;2023-05-10T00:51:52;13.70;99.90
30174;DHT22;16985;50.814;8.530;2023-05-10T00:54:17;13.70;99.90
30174;DHT22;16985;50.814;8.530;2023-05-10T00:56:43;13.70;99.90
30174;DHT22;16985;50.814;8.530;2023-05-10T00:59:15;13.60;99.90
30174;DHT22;16985;50.814;8.530;2023-05-10T01:01:45;13.60;99.90
30174;DHT22;16985;50.814;8.530;2023-05-10T01:04:11;13.60;99.90
30174;DHT22;16985;50.814;8.530;2023-05-10T01:06:42;13.60;99.90
30174;DHT22;16985;50.814;8.530;2023-05-10T01:09:08;13.50;99.90
30174;DHT22;16985;50.814;8.530;2023-05-10T01:11:38;13.50;99.90
30174;DHT22;16985;50.814;8.530;2023-05-10T01:14:05;13.50;99.90
30174;DHT22;16985;50.814;8.530;2023-05-10T01:16:39;13.50;99.90
30174;DHT22;16985;50.814;8.530;2023-05-10T01:19:12;13.50;99.90
30174;DHT22;16985;50.814;8.530;2023-05-10T01:25:09;13.40;99.90
30174;DHT22;16985;50.814;8.530;2023-05-10T01:28:08;13.40;99.90
30174;DHT22;16985;50.814;8.530;2023-05-10T01:33:55;13.30;99.90
30174;DHT22;16985;50.814;8.530;2023-05-10T01:39:39;13.30;99.90
30174;DHT22;16985;50.814;8.530;2023-05-10T01:42:16;13.30;99.90
30174;DHT22;16985;50.814;8.530;2023-05-10T01:45:10;13.30;99.90
30174;DHT22;16985;50.814;8.530;2023-05-10T01:47:42;13.20;99.90
30174;DHT22;16985;50.814;8.530;2023-05-10T01:50:19;13.20;99.90
30174;DHT22;16985;50.814;8.530;2023-05-10T01:52:52;13.30;99.90
30174;DHT22;16985;50.814;8.530;2023-05-10T01:55:21;13.20;99.90
30174;DHT22;16985;50.814;8.530;2023-05-10T01:57:56;13.50;99.90
30174;DHT22;16985;50.814;8.530;2023-05-10T02:00:27;13.20;99.90
30174;DHT22;16985;50.814;8.530;2023-05-10T02:02:54;13.20;99.90
30174;DHT22;16985;50.814;8.530;2023-05-10T02:05:22;13.70;99.90
30174;DHT22;16985;50.814;8.530;2023-05-10T02:07:49;13.20;99.90
30174;DHT22;16985;50.814;8.530;2023-05-10T02:10:32;13.20;99.90
30174;DHT22;16985;50.814;8.530;2023-05-10T02:12:58;13.20;99.90
30174;DHT22;16985;50.814;8.530;2023-05-10T02:15:26;13.10;99.90
30174;DHT22;16985;50.814;8.530;2023-05-10T02:17:54;13.10;99.90
30174;DHT22;16985;50.814;8.530;2023-05-10T02:20:21;13.10;99.90
30174;DHT22;16985;50.814;8.530;2023-05-10T02:22:49;13.10;99.90
30174;DHT22;16985;50.814;8.530;2023-05-10T02:25:18;13.10;99.90
30174;DHT22;16985;50.814;8.530;2023-05-10T02:27:46;13.10;99.90
30174;DHT22;16985;50.814;8.530;2023-05-10T02:30:14;13.00;99.90
30174;DHT22;16985;50.814;8.530;2023-05-10T02:32:41;13.00;99.90
30174;DHT22;16985;50.814;8.530;2023-05-10T02:35:08;13.00;99.90
30174;DHT22;16985;50.814;8.530;2023-05-10T02:37:36;13.00;99.90
30174;DHT22;16985;50.814;8.530;2023-05-10T02:40:04;13.10;99.90
30174;DHT22;16985;50.814;8.530;2023-05-10T02:42:33;13.10;99.90
30174;DHT22;16985;50.814;8.530;2023-05-10T02:45:08;13.00;99.90
30174;DHT22;16985;50.814;8.530;2023-05-10T02:47:37;13.00;99.90
30174;DHT22;16985;50.814;8.530;2023-05-10T02:50:07;13.00;99.90
30174;DHT22;16985;50.814;8.530;2023-05-10T02:52:51;13.00;99.90
30174;DHT22;16985;50.814;8.530;2023-05-10T02:55:25;13.00;99.90
30174;DHT22;16985;50.814;8.530;2023-05-10T02:57:56;13.00;99.90
30174;DHT22;16985;50.814;8.530;2023-05-10T03:00:24;13.00;99.90
30174;DHT22;16985;50.814;8.530;2023-05-10T03:02:50;12.90;99.90
30174;DHT22;16985;50.814;8.530;2023-05-10T03:05:16;12.90;99.90
30174;DHT22;16985;50.814;8.530;2023-05-10T03:07:43;12.90;99.90
30174;DHT22;16985;50.814;8.530;2023-05-10T03:10:09;12.90;99.90
30174;DHT22;16985;50.814;8.530;2023-05-10T03:12:52;12.90;99.90
30174;DHT22;16985;50.814;8.530;2023-05-10T03:18:50;12.90;99.90
30174;DHT22;16985;50.814;8.530;2023-05-10T03:21:22;12.90;99.90
30174;DHT22;16985;50.814;8.530;2023-05-10T03:24:09;12.90;99.90
30174;DHT22;16985;50.814;8.530;2023-05-10T03:26:38;12.90;99.90
30174;DHT22;16985;50.814;8.530;2023-05-10T03:29:13;12.90;99.90
30174;DHT22;16985;50.814;8.530;2023-05-10T03:31:40;12.90;99.90
30174;DHT22;16985;50.814;8.530;2023-05-10T03:34:23;12.80;99.90
30174;DHT22;16985;50.814;8.530;2023-05-10T03:36:50;12.80;99.90
30174;DHT22;16985;50.814;8.530;2023-05-10T03:39:20;12.80;99.90
30174;DHT22;16985;50.814;8.530;2023-05-10T03:41:50;12.80;99.90
30174;DHT22;16985;50.814;8.530;2023-05-10T03:44:16;12.80;99.90
30174;DHT22;16985;50.814;8.530;2023-05-10T03:46:43;12.80;99.90
30174;DHT22;16985;50.814;8.530;2023-05-10T03:49:09;12.80;99.90
30174;DHT22;16985;50.814;8.530;2023-05-10T03:51:35;12.70;99.90
30174;DHT22;16985;50.814;8.530;2023-05-10T03:54:16;12.80;99.90
30174;DHT22;16985;50.814;8.530;2023-05-10T03:56:41;12.80;99.90
30174;DHT22;16985;50.814;8.530;2023-05-10T03:59:08;12.70;99.90
30174;DHT22;16985;50.814;8.530;2023-05-10T04:01:35;12.70;99.90
30174;DHT22;16985;50.814;8.530;2023-05-10T04:04:01;12.70;99.90
30174;DHT22;16985;50.814;8.530;2023-05-10T04:06:26;12.70;99.90
30174;DHT22;16985;50.814;8.530;2023-05-10T04:08:53;12.70;99.90
30174;DHT22;16985;50.814;8.530;2023-05-10T04:11:19;12.70;99.90
30174;DHT22;16985;50.814;8.530;2023-05-10T04:13:47;12.60;99.90
30174;DHT22;16985;50.814;8.530;2023-05-10T04:16:13;12.60;99.90
30174;DHT22;16985;50.814;8.530;2023-05-10T04:18:39;12.60;99.90
30174;DHT22;16985;50.814;8.530;2023-05-10T04:21:11;12.60;99.90
30174;DHT22;16985;50.814;8.530;2023-05-10T04:23:39;12.60;99.90
30174;DHT22;16985;50.814;8.530;2023-05-10T04:26:05;12.60;99.90
30174;DHT22;16985;50.814;8.530;2023-05-10T04:28:31;12.60;99.90
30174;DHT22;16985;50.814;8.530;2023-05-10T04:31:03;12.60;99.90
30174;DHT22;16985;50.814;8.530;2023-05-10T04:33:30;12.60;99.90
30174;DHT22;16985;50.814;8.530;2023-05-10T04:35:57;12.60;99.90
30174;DHT22;16985;50.814;8.530;2023-05-10T04:38:22;12.60;99.90
30174;DHT22;16985;50.814;8.530;2023-05-10T04:40:48;12.60;99.90
30174;DHT22;16985;50.814;8.530;2023-05-10T04:43:14;12.70;99.90
30174;DHT22;16985;50.814;8.530;2023-05-10T04:45:40;12.70;99.90
30174;DHT22;16985;50.814;8.530;2023-05-10T04:48:05;12.70;99.90
30174;DHT22;16985;50.814;8.530;2023-05-10T04:50:31;12.60;99.90
30174;DHT22;16985;50.814;8.530;2023-05-10T04:53:12;12.70;99.90
30174;DHT22;16985;50.814;8.530;2023-05-10T04:55:38;11.30;99.90
30174;DHT22;16985;50.814;8.530;2023-05-10T04:58:03;12.70;99.90
30174;DHT22;16985;50.814;8.530;2023-05-10T05:00:29;12.80;99.90
30174;DHT22;16985;50.814;8.530;2023-05-10T05:02:55;12.80;99.90
30174;DHT22;16985;50.814;8.530;2023-05-10T05:05:21;12.80;99.90
30174;DHT22;16985;50.814;8.530;2023-05-10T05:07:47;12.80;99.90
30174;DHT22;16985;50.814;8.530;2023-05-10T05:10:12;12.80;99.90
30174;DHT22;16985;50.814;8.530;2023-05-10T05:12:38;12.80;99.90
30174;DHT22;16985;50.814;8.530;2023-05-10T05:15:04;12.80;99.90
30174;DHT22;16985;50.814;8.530;2023-05-10T05:17:30;12.80;99.90
30174;DHT22;16985;50.814;8.530;2023-05-10T05:19:56;12.90;99.90
30174;DHT22;16985;50.814;8.530;2023-05-10T05:22:33;12.90;99.90
30174;DHT22;16985;50.814;8.530;2023-05-10T05:25:00;12.90;99.90
30174;DHT22;16985;50.814;8.530;2023-05-10T05:27:27;12.90;99.90
30174;DHT22;16985;50.814;8.530;2023-05-10T05:29:54;13.00;99.90
30174;DHT22;16985;50.814;8.530;2023-05-10T05:32:21;13.00;99.90
30174;DHT22;16985;50.814;8.530;2023-05-10T05:34:47;13.00;99.90
30174;DHT22;16985;50.814;8.530;2023-05-10T05:37:18;13.00;99.90
30174;DHT22;16985;50.814;8.530;2023-05-10T05:39:45;12.50;99.90
30174;DHT22;16985;50.814;8.530;2023-05-10T05:42:11;13.00;99.90
30174;DHT22;16985;50.814;8.530;2023-05-10T05:44:46;13.10;99.90
30174;DHT22;16985;50.814;8.530;2023-05-10T05:47:12;13.10;99.90
30174;DHT22;16985;50.814;8.530;2023-05-10T05:49:37;13.10;99.90
30174;DHT22;16985;50.814;8.530;2023-05-10T05:52:04;13.10;99.90
30174;DHT22;16985;50.814;8.530;2023-05-10T05:54:30;13.20;99.90
30174;DHT22;16985;50.814;8.530;2023-05-10T05:56:57;13.20;99.90
30174;DHT22;16985;50.814;8.530;2023-05-10T05:59:28;13.20;99.90
30174;DHT22;16985;50.814;8.530;2023-05-10T06:01:54;13.20;99.90
30174;DHT22;16985;50.814;8.530;2023-05-10T06:04:20;13.30;99.90
30174;DHT22;16985;50.814;8.530;2023-05-10T06:06:46;13.30;99.90
30174;DHT22;16985;50.814;8.530;2023-05-10T06:09:12;15.40;99.90
30174;DHT22;16985;50.814;8.530;2023-05-10T06:11:38;13.30;99.90
30174;DHT22;16985;50.814;8.530;2023-05-10T06:14:04;13.30;99.90
30174;DHT22;16985;50.814;8.530;2023-05-10T06:16:32;13.30;99.90
30174;DHT22;16985;50.814;8.530;2023-05-10T06:18:58;13.40;99.90
30174;DHT22;16985;50.814;8.530;2023-05-10T06:21:24;13.40;99.90
30174;DHT22;16985;50.814;8.530;2023-05-10T06:23:50;13.40;99.90
30174;DHT22;16985;50.814;8.530;2023-05-10T06:26:16;13.40;99.90
30174;DHT22;16985;50.814;8.530;2023-05-10T06:28:42;13.40;99.90
30174;DHT22;16985;50.814;8.530;2023-05-10T06:31:08;13.40;99.90
30174;DHT22;16985;50.814;8.530;2023-05-10T06:33:34;13.40;99.90
30174;DHT22;16985;50.814;8.530;2023-05-10T06:35:59;14.20;99.90
30174;DHT22;16985;50.814;8.530;2023-05-10T06:38:25;13.50;99.90
30174;DHT22;16985;50.814;8.530;2023-05-10T06:40:51;12.40;99.90
30174;DHT22;16985;50.814;8.530;2023-05-10T06:43:17;13.50;99.90
30174;DHT22;16985;50.814;8.530;2023-05-10T06:45:43;13.60;99.90
30174;DHT22;16985;50.814;8.530;2023-05-10T06:48:09;13.60;99.90
30174;DHT22;16985;50.814;8.530;2023-05-10T06:50:35;13.50;99.90
30174;DHT22;16985;50.814;8.530;2023-05-10T06:53:01;13.60;99.90
30174;DHT22;16985;50.814;8.530;2023-05-10T06:55:27;11.00;99.90
30174;DHT22;16985;50.814;8.530;2023-05-10T06:57:53;13.60;99.90
30174;DHT22;16985;50.814;8.530;2023-05-10T07:00:19;13.60;99.90
30174;DHT22;16985;50.814;8.530;2023-05-10T07:02:46;13.70;99.90
30174;DHT22;16985;50.814;8.530;2023-05-10T07:05:12;13.70;99.90
30174;DHT22;16985;50.814;8.530;2023-05-10T07:07:53;13.70;99.90
30174;DHT22;16985;50.814;8.530;2023-05-10T07:10:19;14.40;99.90
30174;DHT22;16985;50.814;8.530;2023-05-10T07:12:45;13.80;99.90
30174;DHT22;16985;50.814;8.530;2023-05-10T07:15:11;13.90;99.90
30174;DHT22;16985;50.814;8.530;2023-05-10T07:17:37;13.90;99.90
30174;DHT22;16985;50.814;8.530;2023-05-10T07:20:03;13.90;99.90
30174;DHT22;16985;50.814;8.530;2023-05-10T07:22:29;14.00;99.90
30174;DHT22;16985;50.814;8.530;2023-05-10T07:24:55;14.00;99.90
30174;DHT22;16985;50.814;8.530;2023-05-10T07:27:21;14.10;99.90
30174;DHT22;16985;50.814;8.530;2023-05-10T07:29:47;14.20;99.90
30174;DHT22;16985;50.814;8.530;2023-05-10T07:32:12;14.20;99.90
30174;DHT22;16985;50.814;8.530;2023-05-10T07:34:38;14.30;99.90
30174;DHT22;16985;50.814;8.530;2023-05-10T07:37:04;14.40;99.90
30174;DHT22;16985;50.814;8.530;2023-05-10T07:39:31;14.40;99.90
30174;DHT22;16985;50.814;8.530;2023-05-10T07:41:57;14.50;99.90
30174;DHT22;16985;50.814;8.530;2023-05-10T07:44:31;14.50;99.90
30174;DHT22;16985;50.814;8.530;2023-05-10T07:46:57;15.50;99.90
30174;DHT22;16985;50.814;8.530;2023-05-10T07:49:38;14.50;99.90
30174;DHT22;16985;50.814;8.530;2023-05-10T07:52:04;14.40;99.90
30174;DHT22;16985;50.814;8.530;2023-05-10T07:54:30;14.70;99.90
30174;DHT22;16985;50.814;8.530;2023-05-10T07:56:56;14.70;99.90
30174;DHT22;16985;50.814;8.530;2023-05-10T07:59:22;17.70;99.90
30174;DHT22;16985;50.814;8.530;2023-05-10T08:01:47;14.80;99.90
30174;DHT22;16985;50.814;8.530;2023-05-10T08:04:13;14.80;99.90
30174;DHT22;16985;50.814;8.530;2023-05-10T08:06:39;14.80;99.90
30174;DHT22;16985;50.814;8.530;2023-05-10T08:09:05;14.80;99.90
30174;DHT22;16985;50.814;8.530;2023-05-10T08:11:31;14.80;99.90
30174;DHT22;16985;50.814;8.530;2023-05-10T08:13:57;14.80;99.90
30174;DHT22;16985;50.814;8.530;2023-05-10T08:16:23;14.80;99.90
30174;DHT22;16985;50.814;8.530;2023-05-10T08:18:48;14.90;99.90
30174;DHT22;16985;50.814;8.530;2023-05-10T08:21:31;14.80;99.90
30174;DHT22;16985;50.814;8.530;2023-05-10T08:23:57;15.90;99.90
30174;DHT22;16985;50.814;8.530;2023-05-10T08:26:23;14.80;99.90
30174;DHT22;16985;50.814;8.530;2023-05-10T08:28:48;14.90;99.90
30174;DHT22;16985;50.814;8.530;2023-05-10T08:31:15;14.90;99.90
30174;DHT22;16985;50.814;8.530;2023-05-10T08:33:41;13.60;99.90
30174;DHT22;16985;50.814;8.530;2023-05-10T08:36:07;15.00;99.90
30174;DHT22;16985;50.814;8.530;2023-05-10T08:38:32;12.50;99.90
30174;DHT22;16985;50.814;8.530;2023-05-10T08:40:58;15.00;99.90
30174;DHT22;16985;50.814;8.530;2023-05-10T08:43:34;15.00;99.90
30174;DHT22;16985;50.814;8.530;2023-05-10T08:46:01;15.00;99.90
30174;DHT22;16985;50.814;8.530;2023-05-10T08:48:39;15.00;99.90
30174;DHT22;16985;50.814;8.530;2023-05-10T08:51:05;17.00;99.90
30174;DHT22;16985;50.814;8.530;2023-05-10T08:53:33;15.00;99.90
30174;DHT22;16985;50.814;8.530;2023-05-10T08:56:02;15.00;99.90
30174;DHT22;16985;50.814;8.530;2023-05-10T08:58:29;12.70;99.90
30174;DHT22;16985;50.814;8.530;2023-05-10T09:00:57;15.00;99.90
30174;DHT22;16985;50.814;8.530;2023-05-10T09:03:24;15.00;99.90
30174;DHT22;16985;50.814;8.530;2023-05-10T09:05:50;15.00;99.90
30174;DHT22;16985;50.814;8.530;2023-05-10T09:08:17;15.40;99.90
30174;DHT22;16985;50.814;8.530;2023-05-10T09:10:44;15.00;99.90
30174;DHT22;16985;50.814;8.530;2023-05-10T09:13:21;15.00;99.90
30174;DHT22;16985;50.814;8.530;2023-05-10T09:15:48;15.00;99.90
30174;DHT22;16985;50.814;8.530;2023-05-10T09:18:14;15.00;99.90
30174;DHT22;16985;50.814;8.530;2023-05-10T09:20:48;15.10;99.90
30174;DHT22;16985;50.814;8.530;2023-05-10T09:23:14;15.00;99.90
30174;DHT22;16985;50.814;8.530;2023-05-10T09:25:41;15.10;99.90
30174;DHT22;16985;50.814;8.530;2023-05-10T09:28:08;15.00;99.90
30174;DHT22;16985;50.814;8.530;2023-05-10T09:30:35;15.00;99.90
30174;DHT22;16985;50.814;8.530;2023-05-10T09:33:01;15.00;99.90
30174;DHT22;16985;50.814;8.530;2023-05-10T09:35:29;15.00;99.90
30174;DHT22;16985;50.814;8.530;2023-05-10T09:38:02;14.90;99.90
30174;DHT22;16985;50.814;8.530;2023-05-10T09:40:29;15.00;99.90
30174;DHT22;16985;50.814;8.530;2023-05-10T09:43:03;15.00;99.90
30174;DHT22;16985;50.814;8.530;2023-05-10T09:45:32;15.00;99.90
30174;DHT22;16985;50.814;8.530;2023-05-10T09:47:59;14.90;99.90
30174;DHT22;16985;50.814;8.530;2023-05-10T09:50:27;16.10;99.90
30174;DHT22;16985;50.814;8.530;2023-05-10T09:53:01;15.00;99.90
30174;DHT22;16985;50.814;8.530;2023-05-10T09:55:42;15.00;99.90
30174;DHT22;16985;50.814;8.530;2023-05-10T09:58:10;14.90;99.90
30174;DHT22;16985;50.814;8.530;2023-05-10T10:00:37;15.10;99.90
30174;DHT22;16985;50.814;8.530;2023-05-10T10:03:13;15.10;99.90
30174;DHT22;16985;50.814;8.530;2023-05-10T10:05:41;16.00;99.90
30174;DHT22;16985;50.814;8.530;2023-05-10T10:08:11;15.80;99.90
30174;DHT22;16985;50.814;8.530;2023-05-10T10:10:37;15.10;99.90
30174;DHT22;16985;50.814;8.530;2023-05-10T10:13:06;15.10;99.90
30174;DHT22;16985;50.814;8.530;2023-05-10T10:15:33;15.20;99.90
30174;DHT22;16985;50.814;8.530;2023-05-10T10:18:00;15.20;99.90
30174;DHT22;16985;50.814;8.530;2023-05-10T10:20:26;15.30;99.90
30174;DHT22;16985;50.814;8.530;2023-05-10T10:22:53;15.40;99.90
30174;DHT22;16985;50.814;8.530;2023-05-10T10:25:20;15.40;99.90
30174;DHT22;16985;50.814;8.530;2023-05-10T10:33:28;15.60;99.90
30174;DHT22;16985;50.814;8.530;2023-05-10T10:36:06;15.70;99.90
30174;DHT22;16985;50.814;8.530;2023-05-10T10:38:55;15.80;99.90
30174;DHT22;16985;50.814;8.530;2023-05-10T10:41:29;15.80;99.90
30174;DHT22;16985;50.814;8.530;2023-05-10T10:57:53;15.80;99.90
30174;DHT22;16985;50.814;8.530;2023-05-10T11:00:30;16.20;99.90
30174;DHT22;16985;50.814;8.530;2023-05-10T11:03:15;15.70;99.90
30174;DHT22;16985;50.814;8.530;2023-05-10T11:05:51;15.70;99.90
30174;DHT22;16985;50.814;8.530;2023-05-10T11:08:28;15.70;99.90
30174;DHT22;16985;50.814;8.530;2023-05-10T11:13:47;15.60;99.90
30174;DHT22;16985;50.814;8.530;2023-05-10T11:16:21;15.50;99.90
30174;DHT22;16985;50.814;8.530;2023-05-10T11:19:07;15.50;99.90
30174;DHT22;16985;50.814;8.530;2023-05-10T11:24:28;15.50;99.90
30174;DHT22;16985;50.814;8.530;2023-05-10T11:26:54;15.20;99.90
30174;DHT22;16985;50.814;8.530;2023-05-10T11:29:20;15.50;99.90
30174;DHT22;16985;50.814;8.530;2023-05-10T11:31:47;15.80;99.90
30174;DHT22;16985;50.814;8.530;2023-05-10T11:34:24;15.50;99.90
30174;DHT22;16985;50.814;8.530;2023-05-10T11:36:52;15.60;99.90
30174;DHT22;16985;50.814;8.530;2023-05-10T11:39:19;15.70;99.90
30174;DHT22;16985;50.814;8.530;2023-05-10T11:41:49;17.30;99.90
30174;DHT22;16985;50.814;8.530;2023-05-10T11:44:15;15.90;99.90
30174;DHT22;16985;50.814;8.530;2023-05-10T11:46:41;16.00;99.90
30174;DHT22;16985;50.814;8.530;2023-05-10T11:49:07;16.00;99.90
30174;DHT22;16985;50.814;8.530;2023-05-10T11:51:34;16.10;99.90
30174;DHT22;16985;50.814;8.530;2023-05-10T11:54:11;16.30;99.90
30174;DHT22;16985;50.814;8.530;2023-05-10T11:56:38;16.40;99.90
30174;DHT22;16985;50.814;8.530;2023-05-10T11:59:05;16.50;99.90
30174;DHT22;16985;50.814;8.530;2023-05-10T12:01:31;16.50;99.90
30174;DHT22;16985;50.814;8.530;2023-05-10T12:03:58;16.60;99.90
30174;DHT22;16985;50.814;8.530;2023-05-10T12:06:30;16.70;99.90
30174;DHT22;16985;50.814;8.530;2023-05-10T12:08:57;16.70;99.90
30174;DHT22;16985;50.814;8.530;2023-05-10T12:11:28;16.70;99.90
30174;DHT22;16985;50.814;8.530;2023-05-10T12:13:55;16.80;99.90
30174;DHT22;16985;50.814;8.530;2023-05-10T12:16:24;16.70;99.90
30174;DHT22;16985;50.814;8.530;2023-05-10T12:18:52;16.70;99.90
30174;DHT22;16985;50.814;8.530;2023-05-10T12:21:34;16.60;99.90
30174;DHT22;16985;50.814;8.530;2023-05-10T12:24:02;16.40;99.90
30174;DHT22;16985;50.814;8.530;2023-05-10T12:26:29;16.40;99.90
30174;DHT22;16985;50.814;8.530;2023-05-10T12:29:14;16.20;99.90
30174;DHT22;16985;50.814;8.530;2023-05-10T12:31:58;16.10;99.90
30174;DHT22;16985;50.814;8.530;2023-05-10T12:34:31;15.90;99.90
30174;DHT22;16985;50.814;8.530;2023-05-10T12:36:58;15.80;99.90
30174;DHT22;16985;50.814;8.530;2023-05-10T12:39:24;15.70;99.90
30174;DHT22;16985;50.814;8.530;2023-05-10T12:41:51;15.70;99.90
30174;DHT22;16985;50.814;8.530;2023-05-10T12:44:17;15.60;99.90
30174;DHT22;16985;50.814;8.530;2023-05-10T12:46:43;15.50;99.90
30174;DHT22;16985;50.814;8.530;2023-05-10T12:49:09;15.50;99.90
30174;DHT22;16985;50.814;8.530;2023-05-10T12:51:35;15.40;99.90
30174;DHT22;16985;50.814;8.530;2023-05-10T12:54:01;15.40;99.90
30174;DHT22;16985;50.814;8.530;2023-05-10T12:56:28;15.40;99.90
30174;DHT22;16985;50.814;8.530;2023-05-10T12:58:53;15.30;99.90
30174;DHT22;16985;50.814;8.530;2023-05-10T13:01:19;15.40;99.90
30174;DHT22;16985;50.814;8.530;2023-05-10T13:03:45;15.30;99.90
30174;DHT22;16985;50.814;8.530;2023-05-10T13:06:11;15.30;99.90
30174;DHT22;16985;50.814;8.530;2023-05-10T13:08:38;15.40;99.90
30174;DHT22;16985;50.814;8.530;2023-05-10T13:11:08;15.40;99.90
30174;DHT22;16985;50.814;8.530;2023-05-10T13:13:34;15.40;99.90
30174;DHT22;16985;50.814;8.530;2023-05-10T13:16:00;15.50;99.90
30174;DHT22;16985;50.814;8.530;2023-05-10T13:18:26;15.50;99.90
30174;DHT22;16985;50.814;8.530;2023-05-10T13:20:51;15.60;99.90
30174;DHT22;16985;50.814;8.530;2023-05-10T13:23:17;13.90;99.90
30174;DHT22;16985;50.814;8.530;2023-05-10T13:25:43;15.70;99.90
30174;DHT22;16985;50.814;8.530;2023-05-10T13:28:09;15.70;99.90
30174;DHT22;16985;50.814;8.530;2023-05-10T13:30:34;15.80;99.90
30174;DHT22;16985;50.814;8.530;2023-05-10T13:33:00;15.80;99.90
30174;DHT22;16985;50.814;8.530;2023-05-10T13:35:26;15.80;99.90
30174;DHT22;16985;50.814;8.530;2023-05-10T13:37:52;15.80;99.90
30174;DHT22;16985;50.814;8.530;2023-05-10T13:40:22;15.90;99.90
30174;DHT22;16985;50.814;8.530;2023-05-10T13:42:48;15.90;99.90
30174;DHT22;16985;50.814;8.530;2023-05-10T13:45:14;15.90;99.90
30174;DHT22;16985;50.814;8.530;2023-05-10T13:47:40;15.90;99.90
30174;DHT22;16985;50.814;8.530;2023-05-10T13:50:09;15.90;99.90
30174;DHT22;16985;50.814;8.530;2023-05-10T13:52:35;16.00;99.90
30174;DHT22;16985;50.814;8.530;2023-05-10T13:55:00;16.00;99.90
30174;DHT22;16985;50.814;8.530;2023-05-10T13:57:26;18.70;99.90
30174;DHT22;16985;50.814;8.530;2023-05-10T13:59:54;15.90;99.90
30174;DHT22;16985;50.814;8.530;2023-05-10T14:02:19;16.10;99.90
30174;DHT22;16985;50.814;8.530;2023-05-10T14:04:45;16.10;99.90
30174;DHT22;16985;50.814;8.530;2023-05-10T14:07:11;16.00;99.90
30174;DHT22;16985;50.814;8.530;2023-05-10T14:09:37;16.20;99.90
30174;DHT22;16985;50.814;8.530;2023-05-10T14:12:02;16.30;99.90
30174;DHT22;16985;50.814;8.530;2023-05-10T14:14:28;16.40;99.90
30174;DHT22;16985;50.814;8.530;2023-05-10T14:16:54;16.40;99.90
30174;DHT22;16985;50.814;8.530;2023-05-10T14:19:20;16.80;99.90
30174;DHT22;16985;50.814;8.530;2023-05-10T14:21:46;16.60;99.90
30174;DHT22;16985;50.814;8.530;2023-05-10T14:24:27;16.70;99.90
30174;DHT22;16985;50.814;8.530;2023-05-10T14:26:53;16.70;99.90
30174;DHT22;16985;50.814;8.530;2023-05-10T14:29:20;16.80;99.90
30174;DHT22;16985;50.814;8.530;2023-05-10T14:31:46;16.90;99.90
30174;DHT22;16985;50.814;8.530;2023-05-10T14:34:12;16.90;99.90
30174;DHT22;16985;50.814;8.530;2023-05-10T14:36:37;17.00;99.90
30174;DHT22;16985;50.814;8.530;2023-05-10T14:39:03;17.00;99.90
30174;DHT22;16985;50.814;8.530;2023-05-10T14:41:29;17.10;99.90
30174;DHT22;16985;50.814;8.530;2023-05-10T14:43:55;17.10;99.90
30174;DHT22;16985;50.814;8.530;2023-05-10T14:46:21;17.20;99.90
30174;DHT22;16985;50.814;8.530;2023-05-10T14:48:47;17.20;99.90
30174;DHT22;16985;50.814;8.530;2023-05-10T14:51:13;17.10;99.90
30174;DHT22;16985;50.814;8.530;2023-05-10T14:53:38;17.30;99.90
30174;DHT22;16985;50.814;8.530;2023-05-10T14:56:04;17.30;99.90
30174;DHT22;16985;50.814;8.530;2023-05-10T14:58:30;17.40;99.90
30174;DHT22;16985;50.814;8.530;2023-05-10T15:00:56;17.40;99.90
30174;DHT22;16985;50.814;8.530;2023-05-10T15:03:22;17.40;99.90
30174;DHT22;16985;50.814;8.530;2023-05-10T15:05:48;17.40;99.90
30174;DHT22;16985;50.814;8.530;2023-05-10T15:08:14;17.30;99.90
30174;DHT22;16985;50.814;8.530;2023-05-10T15:10:40;17.30;99.90
30174;DHT22;16985;50.814;8.530;2023-05-10T15:13:05;15.10;99.90
30174;DHT22;16985;50.814;8.530;2023-05-10T15:15:31;17.20;99.90
30174;DHT22;16985;50.814;8.530;2023-05-10T15:17:57;17.20;99.90
30174;DHT22;16985;50.814;8.530;2023-05-10T15:20:23;17.00;99.90
30174;DHT22;16985;50.814;8.530;2023-05-10T15:22:49;18.80;99.90
30174;DHT22;16985;50.814;8.530;2023-05-10T15:25:14;16.70;99.90
30174;DHT22;16985;50.814;8.530;2023-05-10T15:27:41;16.70;99.90
30174;DHT22;16985;50.814;8.530;2023-05-10T15:30:09;16.60;99.90
30174;DHT22;16985;50.814;8.530;2023-05-10T15:32:35;16.50;99.90
30174;DHT22;16985;50.814;8.530;2023-05-10T15:35:02;16.40;99.90
30174;DHT22;16985;50.814;8.530;2023-05-10T15:37:28;16.30;99.90
30174;DHT22;16985;50.814;8.530;2023-05-10T15:39:54;16.20;99.90
30174;DHT22;16985;50.814;8.530;2023-05-10T15:42:27;17.00;99.90
30174;DHT22;16985;50.814;8.530;2023-05-10T15:44:53;16.10;99.90
30174;DHT22;16985;50.814;8.530;2023-05-10T15:47:19;15.80;99.90
30174;DHT22;16985;50.814;8.530;2023-05-10T15:49:45;15.90;99.90
30174;DHT22;16985;50.814;8.530;2023-05-10T15:52:10;16.20;99.90
30174;DHT22;16985;50.814;8.530;2023-05-10T15:54:36;15.80;99.90
30174;DHT22;16985;50.814;8.530;2023-05-10T15:57:02;16.10;99.90
30174;DHT22;16985;50.814;8.530;2023-05-10T15:59:28;15.80;99.90
30174;DHT22;16985;50.814;8.530;2023-05-10T16:01:54;15.80;99.90
30174;DHT22;16985;50.814;8.530;2023-05-10T16:04:20;16.30;99.90
30174;DHT22;16985;50.814;8.530;2023-05-10T16:06:45;15.80;99.90
30174;DHT22;16985;50.814;8.530;2023-05-10T16:09:11;15.80;99.90
30174;DHT22;16985;50.814;8.530;2023-05-10T16:11:37;15.80;99.90
30174;DHT22;16985;50.814;8.530;2023-05-10T16:14:03;15.80;99.90